createdAt,value
2019-04-25T15:08:31.349Z,17.60
2019-04-25T15:11:04.830Z,15.30
2019-04-25T15:14:39.541Z,15.30
2019-04-25T15:18:59.247Z,15.20
2019-04-25T15:21:31.856Z,15.20
2019-04-25T15:24:03.008Z,15.10
2019-04-25T15:26:35.360Z,14.90
2019-04-25T15:29:08.689Z,14.90
2019-04-25T15:31:40.204Z,14.80
2019-04-25T15:34:11.660Z,14.50
2019-04-25T18:49:50.481Z,12.20
2019-04-25T18:52:23.386Z,11.90
2019-04-25T18:54:59.826Z,11.80
2019-04-25T18:57:32.155Z,11.80
2019-04-25T19:00:04.758Z,11.80
2019-04-25T19:02:54.122Z,11.80
2019-04-25T19:05:33.353Z,11.70
2019-04-25T19:08:04.498Z,11.70
2019-04-25T19:10:37.038Z,11.80
2019-04-25T19:13:12.968Z,11.80
2019-04-25T19:15:41.259Z,11.80
2019-04-25T19:18:12.608Z,11.80
2019-04-25T19:20:43.948Z,11.80
2019-04-25T19:23:14.920Z,11.80
2019-04-25T19:25:45.877Z,11.80
2019-04-25T19:28:19.780Z,11.80
2019-04-25T19:30:52.558Z,11.80
2019-04-25T19:33:34.983Z,11.80
2019-04-25T19:35:58.224Z,11.80
2019-04-25T19:38:29.849Z,11.90
2019-04-25T19:43:55.616Z,11.80
2019-04-25T19:46:28.129Z,11.80
2019-04-25T19:48:59.094Z,11.80
2019-04-25T19:51:30.273Z,11.80
2019-04-25T19:54:01.793Z,11.90
2019-04-25T19:56:33.124Z,11.90
2019-04-25T19:59:03.915Z,11.90
2019-04-25T20:01:34.603Z,12.00
2019-04-25T20:04:10.162Z,12.00
2019-04-25T20:06:58.898Z,12.00
2019-04-25T20:09:44.807Z,12.10
2019-04-25T20:12:15.808Z,12.10
2019-04-25T20:14:47.496Z,12.10
2019-04-25T20:17:18.316Z,12.10
2019-04-25T20:19:49.829Z,12.10
2019-04-25T20:22:21.246Z,12.20
2019-04-25T20:24:54.475Z,12.10
2019-04-25T20:27:25.003Z,12.20
2019-04-25T20:29:56.255Z,12.20
2019-04-25T20:32:27.140Z,12.20
2019-04-25T20:34:58.504Z,12.20
2019-04-25T20:37:29.718Z,12.20
2019-04-25T20:40:03.276Z,12.20
2019-04-25T20:42:35.308Z,12.30
2019-04-25T20:45:08.386Z,12.30
2019-04-25T20:47:39.417Z,12.30
2019-04-25T20:50:10.102Z,12.30
2019-04-25T20:52:41.604Z,12.40
2019-04-25T20:55:12.612Z,12.40
2019-04-25T20:57:43.611Z,12.50
2019-04-25T21:00:19.078Z,12.50
2019-04-25T21:02:50.536Z,12.50
2019-04-25T21:05:23.332Z,12.50
2019-04-25T21:07:55.161Z,12.50
2019-04-25T21:10:26.187Z,12.50
2019-04-25T21:12:57.755Z,12.50
2019-04-25T21:15:47.968Z,12.50
2019-04-25T21:18:35.569Z,12.50
2019-04-25T21:21:06.271Z,12.50
2019-04-25T21:23:36.857Z,12.50
2019-04-25T21:26:07.609Z,12.60
2019-04-25T21:28:38.324Z,12.60
2019-04-25T21:31:09.619Z,12.60
2019-04-25T21:33:40.451Z,12.60
2019-04-25T21:36:11.594Z,12.60
2019-04-25T21:38:43.062Z,12.60
2019-04-25T21:41:32.343Z,12.60
2019-04-25T21:44:04.278Z,12.60
2019-04-25T21:46:35.568Z,12.60
2019-04-25T21:49:06.543Z,12.60
2019-04-25T21:51:37.796Z,12.60
2019-04-25T21:54:09.046Z,12.60
2019-04-25T21:56:40.034Z,12.70
2019-04-25T21:59:11.590Z,12.70
2019-04-25T22:01:43.924Z,12.70
2019-04-25T22:04:14.850Z,12.70
2019-04-25T22:06:46.122Z,12.70
2019-04-25T22:09:18.510Z,12.70
2019-04-25T22:11:49.968Z,12.70
2019-04-25T22:14:21.794Z,12.70
2019-04-25T22:16:53.232Z,12.70
2019-04-25T22:19:24.495Z,12.80
2019-04-25T22:21:56.295Z,12.70
2019-04-25T22:24:28.399Z,12.80
2019-04-25T22:27:00.887Z,12.80
2019-04-25T22:29:33.520Z,12.80
2019-04-25T22:32:05.808Z,12.80
2019-04-25T22:34:45.739Z,12.80
2019-04-25T22:37:11.023Z,12.80
2019-04-25T22:39:41.964Z,12.70
2019-04-25T22:42:14.174Z,12.80
2019-04-25T22:44:45.124Z,12.90
2019-04-25T22:47:17.613Z,12.90
2019-04-25T22:49:48.180Z,12.90
2019-04-25T22:52:19.130Z,13.00
2019-04-25T22:54:49.991Z,13.00
2019-04-25T22:57:21.067Z,12.90
2019-04-25T22:59:51.663Z,13.00
2019-04-25T23:02:39.172Z,13.00
2019-04-25T23:05:16.108Z,13.00
2019-04-25T23:07:45.156Z,13.10
2019-04-25T23:10:16.334Z,13.10
2019-04-25T23:12:46.987Z,13.10
2019-04-25T23:15:18.026Z,13.10
2019-04-25T23:17:49.054Z,13.10
2019-04-25T23:20:20.167Z,13.10
2019-04-25T23:22:51.032Z,13.10
2019-04-25T23:25:23.552Z,13.10
2019-04-25T23:28:01.570Z,13.10
2019-04-25T23:30:36.919Z,13.10
2019-04-25T23:33:08.442Z,13.10
2019-04-25T23:35:39.333Z,13.10
2019-04-25T23:38:12.521Z,13.10
2019-04-25T23:40:42.730Z,13.10
2019-04-25T23:43:13.866Z,13.10
2019-04-25T23:45:44.459Z,13.10
2019-04-25T23:48:16.376Z,13.10
2019-04-25T23:50:47.216Z,13.20
2019-04-25T23:53:18.015Z,13.20
2019-04-25T23:55:48.681Z,13.20
2019-04-25T23:58:19.291Z,13.20
